East Rutherford, NJ

6:55 PM EST on December 04, 2016 (GMT -0500)
Home | | Change Station

Elev 33 ft 40.84 °N, 74.09 °W | Updated 1 minute ago

Clear
Clear
40.5 °F
Feels Like 40 °F
N
1.0
Wind Variable Wind from ENE

Today
High -- | Low -- °F
--% Chance of Precip.
Yesterday
High -- | Low -- °F
Precip. -- in
Pressure 30.19 in
Visibility 10.0 miles
Clouds Clear
Windchill 40 °F
Dew Point 23 °F
Humidity 50%
Rainfall 0.00 in
Snow Depth Not available.
7:04 AM 4:28 PM
Waxing Crescent, 26% visible
METAR KTEB 042351Z 06004KT 10SM CLR 06/M06 A3018 RMK AO2 SLP221 T00561056 10089 20056 50001 $
Pressure 30.19 in
Visibility 10.0 miles
Clouds Clear
Windchill 40 °F
Dew Point 23 °F
Humidity 50%
Rainfall 0.00 in
Snow Depth Not available.
7:04 AM 4:28 PM
Waxing Crescent, 26% visible
METAR KTEB 042351Z 06004KT 10SM CLR 06/M06 A3018 RMK AO2 SLP221 T00561056 10089 20056 50001 $

10-Day Weather Forecast

Almanac

Astronomy

Dec. 04, 2016 Rise Set
Actual Time
Civil Twilight
Nautical Twilight
Astronomical Twilight
Moon
Length of Visible Light
Length of Day
Tomorrow will be .
, % of the Moon is Illuminated

Today's Extremes

State Highs State Lows

Community

WunderPhotos

Upload Photos

1,955,703 photos uploaded!

WunderBlog® & News

Nearby

Air Quality

  Air Quality AQ Index Pollutant
Not available.

Snow Depth

Station Depth Elevation

Earthquake Activity

City Distance Mag. Time & Date
Minimum magnitude displayed is 2.5.

Coastal Water Temperatures

Place Temperature

Stations

Nearby Weather Stations

Station Location Temp. Windchill Dew Point Humidity Wind Precip. Elev Updated Type
                   

Watches & Warnings

There are currently no watches in effect.